Cleveland, Virginia
Current Conditions -  °F | °C
As of 8:15 PM on Monday 26 Jan 2015 (Local Time) from KVJI Reporting Station
Overcast Overcast  
Wind Chill: 23°   Ceiling: 1300
Heat Index: 30°   Visibility: 10mi
Dew Point: 26°   Wind: 7mph
Humidity: 83%   Direction: 330°NNW
Pressure: 29.85"   Gusts: NA
Location:  36.94°N, 82.15°W
Report Text: KVJI 270115Z AUTO 33006KT 10SM OVC013 M01/M03 A2985 RMK AO2 T10101035
Loading
Personal Weather Stations






























Interactive Weather Map New forecast layout! Learn more

10-Day Weather Forecast

Advertisements
Track Severe Weather on mobile